createdAt,value
2019-03-26T00:03:38.798Z,1.53
2019-03-26T00:07:43.689Z,1.93
2019-03-26T00:11:48.573Z,1.60
2019-03-26T00:15:53.490Z,1.50
2019-03-26T00:19:58.361Z,1.60
2019-03-26T00:24:03.246Z,2.00
2019-03-26T00:28:08.139Z,1.70
2019-03-26T00:32:13.031Z,1.97
2019-03-26T00:36:17.913Z,2.40
2019-03-26T00:40:22.802Z,2.07
2019-03-26T00:44:27.692Z,2.70
2019-03-26T00:48:32.581Z,2.37
2019-03-26T00:52:37.474Z,2.50
2019-03-26T00:56:42.359Z,2.93
2019-03-26T01:00:47.244Z,2.70
2019-03-26T01:04:52.134Z,1.97
2019-03-26T01:08:57.035Z,2.07
2019-03-26T01:13:01.911Z,2.33
2019-03-26T01:17:06.796Z,2.33
2019-03-26T01:21:11.683Z,2.37
2019-03-26T01:25:16.568Z,2.43
2019-03-26T01:29:21.458Z,2.97
2019-03-26T01:33:26.347Z,3.00
2019-03-26T01:37:31.240Z,2.70
2019-03-26T01:41:36.137Z,3.10
2019-03-26T01:45:41.030Z,2.10
2019-03-26T01:49:45.917Z,2.33
2019-03-26T01:53:50.814Z,2.87
2019-03-26T01:57:55.705Z,2.60
2019-03-26T02:02:00.585Z,2.67
2019-03-26T02:06:05.475Z,2.90
2019-03-26T02:10:10.510Z,2.70
2019-03-26T02:14:15.402Z,3.20
2019-03-26T02:18:20.365Z,3.00
2019-03-26T02:22:25.242Z,2.77
2019-03-26T02:26:30.127Z,2.50
2019-03-26T02:30:35.036Z,2.57
2019-03-26T02:34:39.913Z,2.60
2019-03-26T02:38:44.805Z,3.23
2019-03-26T02:42:49.704Z,2.83
2019-03-26T02:46:54.579Z,2.70
2019-03-26T02:50:59.479Z,3.13
2019-03-26T02:55:05.603Z,2.47
2019-03-26T02:59:10.502Z,2.83
2019-03-26T03:03:15.392Z,2.80
2019-03-26T03:07:20.275Z,2.67
2019-03-26T03:11:25.168Z,2.23
2019-03-26T03:15:30.055Z,2.30
2019-03-26T03:19:34.944Z,2.53
2019-03-26T03:23:39.834Z,2.73
2019-03-26T03:27:44.710Z,2.57
2019-03-26T03:31:49.752Z,3.60
2019-03-26T03:35:54.582Z,2.77
2019-03-26T03:39:59.475Z,2.60
2019-03-26T03:44:04.445Z,3.10
2019-03-26T03:48:10.376Z,3.10
2019-03-26T03:52:17.595Z,3.50
2019-03-26T03:56:25.303Z,4.23
2019-03-26T04:00:35.639Z,4.37
2019-03-26T04:04:40.537Z,4.90
2019-03-26T04:08:45.432Z,5.07
2019-03-26T04:12:50.324Z,4.17
2019-03-26T04:16:55.208Z,4.80
2019-03-26T04:21:00.118Z,5.37
2019-03-26T04:25:05.793Z,4.97
2019-03-26T04:29:10.695Z,4.03
2019-03-26T04:33:15.569Z,4.23
2019-03-26T04:37:20.461Z,4.57
2019-03-26T04:41:25.461Z,4.90
2019-03-26T04:45:31.009Z,5.20
2019-03-26T04:49:35.900Z,4.43
2019-03-26T04:53:40.802Z,4.13
2019-03-26T04:57:45.670Z,4.60
2019-03-26T05:01:50.559Z,4.50
2019-03-26T05:05:55.458Z,4.97
2019-03-26T05:10:00.454Z,3.93
2019-03-26T05:14:05.332Z,4.30
2019-03-26T05:18:10.213Z,4.20
2019-03-26T05:22:24.133Z,4.30
2019-03-26T05:26:22.772Z,4.40
2019-03-26T05:30:27.667Z,4.67
2019-03-26T05:34:32.565Z,4.60
2019-03-26T05:38:37.452Z,4.10
2019-03-26T05:42:42.353Z,4.57
2019-03-26T05:46:48.323Z,4.83
2019-03-26T05:50:54.330Z,3.87
2019-03-26T05:54:59.189Z,4.90
2019-03-26T05:59:04.085Z,4.67
2019-03-26T06:03:08.973Z,4.90
2019-03-26T06:07:13.858Z,4.63
2019-03-26T06:11:18.755Z,4.63
2019-03-26T06:15:23.656Z,4.60
2019-03-26T06:19:29.621Z,4.50
2019-03-26T06:23:34.504Z,6.43
2019-03-26T06:27:39.403Z,4.77
2019-03-26T06:31:44.375Z,5.57
2019-03-26T06:35:49.279Z,5.80
2019-03-26T06:39:54.196Z,5.43
2019-03-26T06:44:00.726Z,5.73
2019-03-26T06:48:05.624Z,9.57
2019-03-26T06:52:11.490Z,6.03
2019-03-26T06:56:16.454Z,5.67
2019-03-26T07:00:32.507Z,5.80
2019-03-26T07:04:40.434Z,6.00
2019-03-26T07:08:45.326Z,6.53
2019-03-26T07:12:50.580Z,7.57
2019-03-26T07:16:55.447Z,7.80
2019-03-26T07:21:00.343Z,7.60
2019-03-26T07:25:07.870Z,7.60
2019-03-26T07:29:12.805Z,7.37
2019-03-26T07:33:17.740Z,7.93
2019-03-26T07:37:22.652Z,7.13
2019-03-26T07:41:27.563Z,7.80
2019-03-26T07:45:32.517Z,7.00
2019-03-26T07:49:37.414Z,6.87
2019-03-26T07:53:42.333Z,5.90
2019-03-26T07:57:47.229Z,6.60
2019-03-26T08:01:52.133Z,6.27
2019-03-26T08:05:57.019Z,6.37
2019-03-26T08:10:01.918Z,5.27
2019-03-26T08:14:06.864Z,4.70
2019-03-26T08:18:11.713Z,5.97
2019-03-26T08:22:16.621Z,4.67
2019-03-26T08:26:21.505Z,4.77
2019-03-26T08:30:26.405Z,6.20
2019-03-26T08:34:31.296Z,6.13
2019-03-26T08:38:36.191Z,5.30
2019-03-26T08:42:41.081Z,8.67
2019-03-26T08:46:46.361Z,5.60
2019-03-26T08:50:51.462Z,5.30
2019-03-26T08:54:56.352Z,5.13
2019-03-26T08:59:01.255Z,5.50
2019-03-26T09:03:06.209Z,5.47
2019-03-26T09:07:11.237Z,5.30
2019-03-26T09:11:16.919Z,17.90
2019-03-26T09:15:21.819Z,7.20
2019-03-26T09:19:26.714Z,9.43
2019-03-26T09:23:31.607Z,5.47
2019-03-26T09:27:36.614Z,5.23
2019-03-26T09:31:41.451Z,4.93
2019-03-26T09:35:46.352Z,4.80
2019-03-26T09:39:51.252Z,4.47
2019-03-26T09:43:56.147Z,4.10
2019-03-26T09:48:01.032Z,4.63
2019-03-26T09:52:05.930Z,4.50
2019-03-26T09:56:10.829Z,5.30
2019-03-26T10:00:16.025Z,4.33
2019-03-26T10:04:20.997Z,5.00
2019-03-26T10:08:25.888Z,5.07
2019-03-26T10:12:30.859Z,5.07
2019-03-26T10:16:35.751Z,4.60
2019-03-26T10:20:40.653Z,5.67
2019-03-26T10:24:45.547Z,5.33
2019-03-26T10:28:50.440Z,5.97
2019-03-26T10:32:55.326Z,5.70
2019-03-26T10:37:00.868Z,6.47
2019-03-26T10:41:05.770Z,5.83
2019-03-26T10:45:10.804Z,5.70
2019-03-26T10:49:15.767Z,5.53
2019-03-26T10:53:20.659Z,5.03
2019-03-26T10:57:25.562Z,5.10
2019-03-26T11:01:30.461Z,4.87
2019-03-26T11:05:35.365Z,5.00
2019-03-26T11:09:40.250Z,4.40
2019-03-26T11:13:45.148Z,4.50
2019-03-26T11:17:50.056Z,5.43
2019-03-26T11:21:54.958Z,3.97
2019-03-26T11:25:59.860Z,4.10
2019-03-26T11:30:06.956Z,4.10
2019-03-26T11:34:11.844Z,3.57
2019-03-26T11:38:18.500Z,3.80
2019-03-26T11:42:23.599Z,4.43
2019-03-26T11:46:28.483Z,3.70
2019-03-26T11:50:33.374Z,3.50
2019-03-26T11:54:38.289Z,4.70
2019-03-26T11:58:43.181Z,3.93
2019-03-26T12:02:48.082Z,4.23
2019-03-26T12:06:52.987Z,4.37
2019-03-26T12:10:57.903Z,3.97
2019-03-26T12:15:02.794Z,3.93
2019-03-26T12:19:08.739Z,5.20
2019-03-26T12:23:13.649Z,5.53
2019-03-26T12:27:18.549Z,6.57
2019-03-26T12:31:23.454Z,5.93
2019-03-26T12:35:29.486Z,6.00
2019-03-26T12:39:34.386Z,5.63
2019-03-26T12:43:39.281Z,5.80
2019-03-26T12:47:44.200Z,4.80
2019-03-26T12:51:49.097Z,4.53
2019-03-26T12:55:53.983Z,4.90
2019-03-26T12:59:58.886Z,4.80
2019-03-26T13:04:12.440Z,5.03
2019-03-26T13:08:10.412Z,4.90
2019-03-26T13:12:15.323Z,4.80
2019-03-26T13:16:20.212Z,5.23
2019-03-26T13:20:25.117Z,4.27
2019-03-26T13:24:30.027Z,4.17
2019-03-26T13:28:34.936Z,3.83
2019-03-26T13:32:39.842Z,3.90
2019-03-26T13:36:44.736Z,3.53
2019-03-26T13:40:49.641Z,3.60
2019-03-26T13:44:54.554Z,4.00
2019-03-26T13:48:59.462Z,5.80
2019-03-26T13:53:04.442Z,6.83
2019-03-26T13:57:09.330Z,2.63
2019-03-26T14:01:14.228Z,4.10
2019-03-26T14:05:28.175Z,3.60
2019-03-26T14:09:33.064Z,2.80
2019-03-26T14:13:37.967Z,3.70
2019-03-26T14:17:42.863Z,4.50
2019-03-26T14:21:47.804Z,4.00
2019-03-26T14:25:52.709Z,3.97
2019-03-26T14:29:57.610Z,4.27
2019-03-26T14:34:02.519Z,3.53
2019-03-26T14:38:07.478Z,3.00
2019-03-26T14:42:12.372Z,3.60
2019-03-26T14:46:17.274Z,3.63
2019-03-26T14:50:22.241Z,4.30
2019-03-26T14:54:27.212Z,4.10
2019-03-26T14:58:32.099Z,4.27
2019-03-26T15:02:36.999Z,4.47
2019-03-26T15:06:42.155Z,4.67
2019-03-26T15:10:47.055Z,5.07
2019-03-26T15:14:51.944Z,4.20
2019-03-26T15:18:56.838Z,7.40
2019-03-26T15:23:01.731Z,5.00
2019-03-26T15:27:06.626Z,5.53
2019-03-26T15:31:11.525Z,5.17
2019-03-26T15:35:16.486Z,5.77
2019-03-26T15:39:21.391Z,5.47
2019-03-26T15:43:26.273Z,4.97
2019-03-26T15:47:31.247Z,11.03
2019-03-26T15:51:36.156Z,7.33
2019-03-26T15:55:41.063Z,5.90
2019-03-26T15:59:45.973Z,8.50
2019-03-26T16:03:50.875Z,5.70
2019-03-26T16:07:55.845Z,8.50
2019-03-26T16:12:00.745Z,9.43
2019-03-26T16:16:05.643Z,5.60
2019-03-26T16:20:11.219Z,10.67
2019-03-26T16:24:16.107Z,6.20
2019-03-26T16:28:21.004Z,8.83
2019-03-26T16:32:25.904Z,7.00
2019-03-26T16:36:30.797Z,6.00
2019-03-26T16:40:35.698Z,5.07
2019-03-26T16:44:40.575Z,8.27
2019-03-26T16:48:45.478Z,5.00
2019-03-26T16:52:50.440Z,4.70
2019-03-26T16:56:55.335Z,5.30
2019-03-26T17:01:00.231Z,5.27
2019-03-26T17:05:06.790Z,5.20
2019-03-26T17:09:11.676Z,4.23
2019-03-26T17:13:16.569Z,8.23
2019-03-26T17:17:21.475Z,10.70
2019-03-26T17:21:26.447Z,7.93
2019-03-26T17:25:31.352Z,4.37
2019-03-26T17:29:36.255Z,7.60
2019-03-26T17:33:41.188Z,9.20
2019-03-26T17:37:58.987Z,4.77
2019-03-26T17:41:52.647Z,4.10
2019-03-26T17:45:57.618Z,5.33
2019-03-26T17:50:02.587Z,8.10
2019-03-26T17:54:07.469Z,5.87
2019-03-26T17:58:12.375Z,5.00
2019-03-26T18:02:17.408Z,4.87
2019-03-26T18:06:22.308Z,4.43
2019-03-26T18:10:27.212Z,4.60
2019-03-26T18:14:32.100Z,4.37
2019-03-26T18:18:36.997Z,4.73
2019-03-26T18:22:41.893Z,5.27
2019-03-26T18:26:46.792Z,5.17
2019-03-26T18:30:51.751Z,6.10
2019-03-26T18:34:56.633Z,5.20
2019-03-26T18:39:01.536Z,4.73
2019-03-26T18:43:07.265Z,4.87
2019-03-26T18:47:12.278Z,3.77
2019-03-26T18:51:17.175Z,4.67
2019-03-26T18:55:25.109Z,4.83
2019-03-26T18:59:28.671Z,4.70
2019-03-26T19:03:34.639Z,4.90
2019-03-26T19:07:39.554Z,5.27
2019-03-26T19:11:44.462Z,6.00
2019-03-26T19:15:49.354Z,6.13
2019-03-26T19:19:54.254Z,7.50
2019-03-26T19:24:04.527Z,6.63
2019-03-26T19:28:05.743Z,6.93
2019-03-26T19:32:10.712Z,6.73
2019-03-26T19:36:15.604Z,7.00
2019-03-26T19:40:20.487Z,7.10
2019-03-26T19:44:25.390Z,6.50
2019-03-26T19:48:30.289Z,7.20
2019-03-26T19:52:35.196Z,7.30
2019-03-26T19:56:40.090Z,7.40
2019-03-26T20:00:44.979Z,7.53
2019-03-26T20:04:49.874Z,7.23
2019-03-26T20:08:54.772Z,7.90
2019-03-26T20:12:59.685Z,8.97
2019-03-26T20:17:04.639Z,8.23
2019-03-26T20:21:09.540Z,9.40
2019-03-26T20:25:15.739Z,8.97
2019-03-26T20:29:20.645Z,8.63
2019-03-26T20:33:25.546Z,8.50
2019-03-26T20:37:30.460Z,8.90
2019-03-26T20:41:35.414Z,8.07
2019-03-26T20:45:40.301Z,8.40
2019-03-26T20:49:45.199Z,8.60
2019-03-26T20:53:50.087Z,8.97
2019-03-26T20:57:54.983Z,8.47
2019-03-26T21:01:59.879Z,9.97
2019-03-26T21:06:04.772Z,10.40
2019-03-26T21:10:10.023Z,10.23
2019-03-26T21:14:14.923Z,10.43
2019-03-26T21:18:19.829Z,9.73
2019-03-26T21:22:25.792Z,11.60
2019-03-26T21:26:30.705Z,10.40
2019-03-26T21:30:35.660Z,11.20
2019-03-26T21:34:40.601Z,11.50
2019-03-26T21:38:45.476Z,11.23
2019-03-26T21:42:50.380Z,12.30
2019-03-26T21:46:55.287Z,11.27
2019-03-26T21:51:00.181Z,12.37
2019-03-26T21:55:08.026Z,11.73
2019-03-26T21:59:12.944Z,12.60
2019-03-26T22:03:17.853Z,12.67
2019-03-26T22:07:22.759Z,10.70
2019-03-26T22:11:27.653Z,10.87
2019-03-26T22:15:32.562Z,10.27
2019-03-26T22:19:37.466Z,11.33
2019-03-26T22:23:42.377Z,11.30
2019-03-26T22:27:47.280Z,11.37
2019-03-26T22:31:52.185Z,11.70
2019-03-26T22:35:57.090Z,11.27
2019-03-26T22:40:01.993Z,12.00
2019-03-26T22:44:06.893Z,11.63
2019-03-26T22:48:11.799Z,11.00
2019-03-26T22:52:16.698Z,11.60
2019-03-26T22:56:21.592Z,11.70
2019-03-26T23:00:27.107Z,10.47
2019-03-26T23:04:33.602Z,10.53
2019-03-26T23:08:38.518Z,11.13
2019-03-26T23:12:43.494Z,11.97
2019-03-26T23:16:48.382Z,11.57
2019-03-26T23:20:53.308Z,10.30
2019-03-26T23:24:58.195Z,11.27
2019-03-26T23:29:03.101Z,10.57
2019-03-26T23:33:08.005Z,37.60
2019-03-26T23:37:13.885Z,11.67
2019-03-26T23:41:18.791Z,10.93
2019-03-26T23:45:23.767Z,11.63
2019-03-26T23:49:28.667Z,11.27
2019-03-26T23:53:33.576Z,11.77
2019-03-26T23:57:38.497Z,12.17
